PWSweather.com
Personal Weather Stations
Station Observations
KTXPLANO70
Kemper Estates, Plano, TX

Kemper EstatesPlano, TX

Lat: 33.0674, Lon: -96.7659

Elevation: 737

Station Type: Davis Vantage Pro2

http://www.dallasdawg.com

Latest ConditionsUpdated 5:45:01 PM CST Sunday, Nov 18, 2018
Currently Today's Max Today's Min Today's Average
Temperature 39.4°F4.1°C 60.4°F15.8°C 38.8°F3.8°C 43.3°F6.3°C
Dew Point 32.8°F0.4°C 53.4°F11.9°C 32.4°F0.2°C 37.3°F2.9°C
Winds Calm Calm 6.9 mph -11.1 kmh - - 2.8 mph 4.5 kmh
Wind Gusts 3.5 mph5.6 kmh 12.7 mph20.4 kmh - -
Humidity 77% 88% 73% 79%
Pressure 30.28 in1025.4 mb 30.35 in1027.8 mb 30.10 in1019.3 mb -
Hour Temp Dew Point Humidity Winds Wind Gusts Pressure Precip Precip Rate Daily Precip Total
05:45 PM 39.4°F4.1°C 32.8°F0.4°C 77% Calm Calm 3.5 mph5.6 kmh 30.28 in1025.4 mb - 0.00 in0.0 mm 0.00 in0.0 mm
05:40 PM 39.3°F4.1°C 32.4°F0.2°C 76% 1.2 mph NW1.9 kmh NW 3.5 mph5.6 kmh 30.29 in1025.7 mb - 0.00 in0.0 mm 0.00 in0.0 mm
05:35 PM 39.4°F4.1°C 32.7°F0.4°C 77% 1.2 mph W1.9 kmh W 5.8 mph9.3 kmh 30.28 in1025.4 mb - 0.00 in0.0 mm 0.00 in0.0 mm
05:30 PM 39.3°F4.1°C 32.7°F0.4°C 77% 1.2 mph WSW1.9 kmh WSW 2.3 mph3.7 kmh 30.28 in1025.4 mb - 0.00 in0.0 mm 0.00 in0.0 mm
05:25 PM 39.4°F4.1°C 32.5°F0.3°C 76% 3.5 mph NW5.6 kmh NW 6.9 mph11.1 kmh 30.28 in1025.4 mb - 0.00 in0.0 mm 0.00 in0.0 mm
05:20 PM 39.5°F4.2°C 32.9°F0.5°C 77% Calm Calm 2.3 mph3.7 kmh 30.28 in1025.4 mb - 0.00 in0.0 mm 0.00 in0.0 mm
05:15 PM 39.5°F4.2°C 32.9°F0.5°C 77% 2.3 mph NW3.7 kmh NW 6.9 mph11.1 kmh 30.28 in1025.4 mb - 0.00 in0.0 mm 0.00 in0.0 mm
05:10 PM 39.4°F4.1°C 32.5°F0.3°C 76% 2.3 mph NW3.7 kmh NW 5.8 mph9.3 kmh 30.28 in1025.4 mb - 0.00 in0.0 mm 0.00 in0.0 mm
05:00 PM 39.6°F4.2°C 32.7°F0.4°C 76% 2.3 mph WNW3.7 kmh WNW 5.8 mph9.3 kmh 30.28 in1025.4 mb - 0.00 in0.0 mm 0.00 in0.0 mm
04:55 PM 39.7°F4.3°C 32.7°F0.4°C 76% 1.2 mph NW1.9 kmh NW 3.5 mph5.6 kmh 30.29 in1025.7 mb - 0.00 in0.0 mm 0.00 in0.0 mm
04:50 PM 39.7°F4.3°C 32.8°F0.4°C 76% Calm Calm -- 30.28 in1025.4 mb - 0.00 in0.0 mm 0.00 in0.0 mm
04:45 PM 39.9°F4.4°C 32.9°F0.5°C 76% Calm Calm -- 30.28 in1025.4 mb - 0.00 in0.0 mm 0.00 in0.0 mm
04:40 PM 40.0°F4.4°C 33.0°F0.6°C 76% Calm Calm -- 30.28 in1025.4 mb - 0.00 in0.0 mm 0.00 in0.0 mm
04:35 PM 40.1°F4.5°C 33.1°F0.6°C 76% Calm Calm 4.6 mph7.4 kmh 30.28 in1025.4 mb - 0.00 in0.0 mm 0.00 in0.0 mm
04:30 PM 40.2°F4.6°C 33.2°F0.7°C 76% Calm Calm -- 30.28 in1025.4 mb - 0.00 in0.0 mm 0.00 in0.0 mm
04:25 PM 40.2°F4.6°C 33.2°F0.7°C 76% 1.2 mph WSW1.9 kmh WSW 1.2 mph1.9 kmh 30.28 in1025.4 mb - 0.00 in0.0 mm 0.00 in0.0 mm
04:20 PM 40.1°F4.5°C 33.1°F0.6°C 76% 2.3 mph NW3.7 kmh NW 5.8 mph9.3 kmh 30.27 in1025.1 mb - 0.00 in0.0 mm 0.00 in0.0 mm
04:15 PM 40.0°F4.4°C 33.4°F0.8°C 77% Calm Calm 1.2 mph1.9 kmh 30.27 in1025.1 mb - 0.00 in0.0 mm 0.00 in0.0 mm
04:10 PM 40.2°F4.6°C 33.2°F0.7°C 76% 3.5 mph NW5.6 kmh NW 6.9 mph11.1 kmh 30.27 in1025.1 mb - 0.00 in0.0 mm 0.00 in0.0 mm
04:00 PM 39.8°F4.3°C 33.2°F0.7°C 77% 1.2 mph WNW1.9 kmh WNW 5.8 mph9.3 kmh 30.27 in1025.1 mb - 0.00 in0.0 mm 0.00 in0.0 mm
03:55 PM 39.9°F4.4°C 33.3°F0.7°C 77% Calm Calm 4.6 mph7.4 kmh 30.27 in1025.1 mb - 0.00 in0.0 mm 0.00 in0.0 mm
03:50 PM 40.0°F4.4°C 33.4°F0.8°C 77% 4.6 mph NW7.4 kmh NW 8.1 mph13.0 kmh 30.28 in1025.4 mb - 0.00 in0.0 mm 0.00 in0.0 mm
03:45 PM 39.9°F4.4°C 33.2°F0.7°C 77% 1.2 mph WNW1.9 kmh WNW 6.9 mph11.1 kmh 30.28 in1025.4 mb - 0.00 in0.0 mm 0.00 in0.0 mm
03:40 PM 39.9°F4.4°C 33.3°F0.7°C 77% 2.3 mph W3.7 kmh W 9.2 mph14.8 kmh 30.28 in1025.4 mb - 0.00 in0.0 mm 0.00 in0.0 mm
03:35 PM 39.9°F4.4°C 32.9°F0.5°C 76% 2.3 mph WNW3.7 kmh WNW 6.9 mph11.1 kmh 30.28 in1025.4 mb - 0.00 in0.0 mm 0.00 in0.0 mm
03:30 PM 40.1°F4.5°C 33.1°F0.6°C 76% 3.5 mph W5.6 kmh W 4.6 mph7.4 kmh 30.28 in1025.4 mb - 0.00 in0.0 mm 0.00 in0.0 mm
03:25 PM 40.2°F4.6°C 33.2°F0.7°C 76% 2.3 mph WNW3.7 kmh WNW 10.4 mph16.7 kmh 30.28 in1025.4 mb - 0.00 in0.0 mm 0.00 in0.0 mm
03:20 PM 40.4°F4.7°C 33.4°F0.8°C 76% 1.2 mph W1.9 kmh W 9.2 mph14.8 kmh 30.28 in1025.4 mb - 0.00 in0.0 mm 0.00 in0.0 mm
03:15 PM 40.3°F4.6°C 33.3°F0.7°C 76% 1.2 mph WSW1.9 kmh WSW 3.5 mph5.6 kmh 30.28 in1025.4 mb - 0.00 in0.0 mm 0.00 in0.0 mm
03:10 PM 40.3°F4.6°C 33.3°F0.7°C 76% 4.6 mph WNW7.4 kmh WNW 10.4 mph16.7 kmh 30.27 in1025.1 mb - 0.00 in0.0 mm 0.00 in0.0 mm
03:00 PM 40.4°F4.7°C 33.4°F0.8°C 76% 1.2 mph NW1.9 kmh NW 8.1 mph13.0 kmh 30.28 in1025.4 mb - 0.00 in0.0 mm 0.00 in0.0 mm
02:55 PM 40.3°F4.6°C 33.3°F0.7°C 76% 1.2 mph W1.9 kmh W 4.6 mph7.4 kmh 30.28 in1025.4 mb - 0.00 in0.0 mm 0.00 in0.0 mm
02:50 PM 40.4°F4.7°C 33.4°F0.8°C 76% 2.3 mph W3.7 kmh W 3.5 mph5.6 kmh 30.28 in1025.4 mb - 0.00 in0.0 mm 0.00 in0.0 mm
02:45 PM 40.4°F4.7°C 33.4°F0.8°C 76% 1.2 mph W1.9 kmh W 2.3 mph3.7 kmh 30.28 in1025.4 mb - 0.00 in0.0 mm 0.00 in0.0 mm
02:40 PM 40.4°F4.7°C 33.4°F0.8°C 76% 2.3 mph NW3.7 kmh NW 9.2 mph14.8 kmh 30.28 in1025.4 mb - 0.00 in0.0 mm 0.00 in0.0 mm
02:35 PM 40.3°F4.6°C 33.7°F0.9°C 77% 1.2 mph W1.9 kmh W 6.9 mph11.1 kmh 30.28 in1025.4 mb - 0.00 in0.0 mm 0.00 in0.0 mm
02:30 PM 40.5°F4.7°C 33.9°F1.1°C 77% 2.3 mph NW3.7 kmh NW 8.1 mph13.0 kmh 30.28 in1025.4 mb - 0.00 in0.0 mm 0.00 in0.0 mm
02:25 PM 40.1°F4.5°C 33.8°F1.0°C 78% 1.2 mph WSW1.9 kmh WSW 3.5 mph5.6 kmh 30.29 in1025.7 mb - 0.00 in0.0 mm 0.00 in0.0 mm
02:20 PM 39.6°F4.2°C 33.3°F0.7°C 78% 2.3 mph W3.7 kmh W 3.5 mph5.6 kmh 30.29 in1025.7 mb - 0.00 in0.0 mm 0.00 in0.0 mm
02:15 PM 39.9°F4.4°C 33.2°F0.7°C 77% 3.5 mph W5.6 kmh W 5.8 mph9.3 kmh 30.29 in1025.7 mb - 0.00 in0.0 mm 0.00 in0.0 mm
02:10 PM 40.2°F4.6°C 33.6°F0.9°C 77% 2.3 mph W3.7 kmh W 8.1 mph13.0 kmh 30.29 in1025.7 mb - 0.00 in0.0 mm 0.00 in0.0 mm
02:00 PM 40.3°F4.6°C 33.7°F0.9°C 77% 2.3 mph W3.7 kmh W 4.6 mph7.4 kmh 30.29 in1025.7 mb - 0.00 in0.0 mm 0.00 in0.0 mm
01:55 PM 40.4°F4.7°C 34.1°F1.2°C 78% 1.2 mph W1.9 kmh W 5.8 mph9.3 kmh 30.29 in1025.7 mb - 0.00 in0.0 mm 0.00 in0.0 mm
01:50 PM 40.0°F4.4°C 33.7°F0.9°C 78% 1.2 mph WSW1.9 kmh WSW 3.5 mph5.6 kmh 30.29 in1025.7 mb - 0.00 in0.0 mm 0.00 in0.0 mm
01:45 PM 40.0°F4.4°C 33.7°F0.9°C 78% 2.3 mph WNW3.7 kmh WNW 10.4 mph16.7 kmh 30.29 in1025.7 mb - 0.00 in0.0 mm 0.00 in0.0 mm
01:40 PM 40.2°F4.6°C 33.9°F1.1°C 78% 3.5 mph W5.6 kmh W 10.4 mph16.7 kmh 30.29 in1025.7 mb - 0.00 in0.0 mm 0.00 in0.0 mm
01:35 PM 40.1°F4.5°C 33.8°F1.0°C 78% 2.3 mph N3.7 kmh N 2.3 mph3.7 kmh 30.29 in1025.7 mb - 0.00 in0.0 mm 0.00 in0.0 mm
01:30 PM 40.6°F4.8°C 34.0°F1.1°C 77% 3.5 mph WSW5.6 kmh WSW 8.1 mph13.0 kmh 30.29 in1025.7 mb - 0.00 in0.0 mm 0.00 in0.0 mm
01:25 PM 40.8°F4.9°C 33.8°F1.0°C 76% 2.3 mph W3.7 kmh W 4.6 mph7.4 kmh 30.29 in1025.7 mb - 0.00 in0.0 mm 0.00 in0.0 mm
01:20 PM 41.0°F5.0°C 34.0°F1.1°C 76% 3.5 mph WNW5.6 kmh WNW 8.1 mph13.0 kmh 30.29 in1025.7 mb - 0.00 in0.0 mm 0.00 in0.0 mm
01:15 PM 40.8°F4.9°C 33.5°F0.8°C 75% 2.3 mph W3.7 kmh W 4.6 mph7.4 kmh 30.29 in1025.7 mb - 0.00 in0.0 mm 0.00 in0.0 mm
01:10 PM 41.1°F5.1°C 34.1°F1.2°C 76% 3.5 mph WNW5.6 kmh WNW 6.9 mph11.1 kmh 30.30 in1026.1 mb - 0.00 in0.0 mm 0.00 in0.0 mm
01:00 PM 40.7°F4.8°C 33.7°F0.9°C 76% 3.5 mph WNW5.6 kmh WNW 5.8 mph9.3 kmh 30.30 in1026.1 mb - 0.00 in0.0 mm 0.00 in0.0 mm
12:55 PM 40.8°F4.9°C 34.1°F1.2°C 77% 3.5 mph WNW5.6 kmh WNW 11.5 mph18.5 kmh 30.30 in1026.1 mb - 0.00 in0.0 mm 0.00 in0.0 mm
12:50 PM 40.9°F4.9°C 34.2°F1.2°C 77% 2.3 mph NW3.7 kmh NW 8.1 mph13.0 kmh 30.30 in1026.1 mb - 0.00 in0.0 mm 0.00 in0.0 mm
12:45 PM 40.6°F4.8°C 34.0°F1.1°C 77% 2.3 mph W3.7 kmh W 8.1 mph13.0 kmh 30.31 in1026.4 mb - 0.00 in0.0 mm 0.00 in0.0 mm
12:40 PM 40.6°F4.8°C 34.3°F1.3°C 78% Calm Calm 4.6 mph7.4 kmh 30.31 in1026.4 mb - 0.00 in0.0 mm 0.00 in0.0 mm
12:35 PM 40.3°F4.6°C 34.0°F1.1°C 78% 2.3 mph WSW3.7 kmh WSW 4.6 mph7.4 kmh 30.31 in1026.4 mb - 0.00 in0.0 mm 0.00 in0.0 mm
12:30 PM 40.1°F4.5°C 34.1°F1.2°C 79% Calm Calm -- 30.32 in1026.8 mb - 0.00 in0.0 mm 0.00 in0.0 mm
12:25 PM 40.3°F4.6°C 34.3°F1.3°C 79% 3.5 mph WSW5.6 kmh WSW 3.5 mph5.6 kmh 30.32 in1026.8 mb - 0.00 in0.0 mm 0.00 in0.0 mm
12:20 PM 40.0°F4.4°C 34.0°F1.1°C 79% 3.5 mph WNW5.6 kmh WNW 6.9 mph11.1 kmh 30.32 in1026.8 mb - 0.00 in0.0 mm 0.00 in0.0 mm
12:15 PM 39.8°F4.3°C 33.8°F1.0°C 79% 3.5 mph W5.6 kmh W 3.5 mph5.6 kmh 30.32 in1026.8 mb - 0.00 in0.0 mm 0.00 in0.0 mm
12:10 PM 40.0°F4.4°C 34.0°F1.1°C 79% 4.6 mph WNW7.4 kmh WNW 11.5 mph18.5 kmh 30.32 in1026.8 mb - 0.00 in0.0 mm 0.00 in0.0 mm
12:00 PM 40.0°F4.4°C 34.0°F1.1°C 79% 1.2 mph W1.9 kmh W 3.5 mph5.6 kmh 30.33 in1027.1 mb - 0.00 in0.0 mm 0.00 in0.0 mm
11:55 AM 39.8°F4.3°C 34.1°F1.2°C 80% 2.3 mph NW3.7 kmh NW 6.9 mph11.1 kmh 30.33 in1027.1 mb - 0.00 in0.0 mm 0.00 in0.0 mm
11:50 AM 40.0°F4.4°C 34.3°F1.3°C 80% 5.8 mph WNW9.3 kmh WNW 10.4 mph16.7 kmh 30.33 in1027.1 mb - 0.00 in0.0 mm 0.00 in0.0 mm
11:45 AM 39.6°F4.2°C 33.9°F1.1°C 80% 2.3 mph WSW3.7 kmh WSW 5.8 mph9.3 kmh 30.33 in1027.1 mb - 0.00 in0.0 mm 0.00 in0.0 mm
11:40 AM 39.9°F4.4°C 34.5°F1.4°C 81% 3.5 mph W5.6 kmh W 5.8 mph9.3 kmh 30.33 in1027.1 mb - 0.00 in0.0 mm 0.00 in0.0 mm
11:35 AM 39.7°F4.3°C 34.3°F1.3°C 81% 2.3 mph WNW3.7 kmh WNW 9.2 mph14.8 kmh 30.34 in1027.4 mb - 0.00 in0.0 mm 0.00 in0.0 mm
11:30 AM 39.6°F4.2°C 34.2°F1.2°C 81% 3.5 mph NW5.6 kmh NW 6.9 mph11.1 kmh 30.34 in1027.4 mb - 0.00 in0.0 mm 0.00 in0.0 mm
11:25 AM 39.4°F4.1°C 34.3°F1.3°C 82% 2.3 mph NW3.7 kmh NW 3.5 mph5.6 kmh 30.34 in1027.4 mb - 0.00 in0.0 mm 0.00 in0.0 mm
11:20 AM 39.3°F4.1°C 34.3°F1.3°C 82% Calm Calm -- 30.35 in1027.8 mb - 0.00 in0.0 mm 0.00 in0.0 mm
11:15 AM 39.7°F4.3°C 34.7°F1.5°C 82% 3.5 mph WSW5.6 kmh WSW 11.5 mph18.5 kmh 30.35 in1027.8 mb - 0.00 in0.0 mm 0.00 in0.0 mm
11:10 AM 40.0°F4.4°C 34.9°F1.6°C 82% 2.3 mph W3.7 kmh W 6.9 mph11.1 kmh 30.34 in1027.4 mb - 0.00 in0.0 mm 0.00 in0.0 mm
11:00 AM 39.5°F4.2°C 34.8°F1.6°C 83% 4.6 mph WNW7.4 kmh WNW 6.9 mph11.1 kmh 30.34 in1027.4 mb - 0.00 in0.0 mm 0.00 in0.0 mm
10:55 AM 39.5°F4.2°C 34.7°F1.5°C 83% 3.5 mph W5.6 kmh W 5.8 mph9.3 kmh 30.34 in1027.4 mb - 0.00 in0.0 mm 0.00 in0.0 mm
10:50 AM 39.5°F4.2°C 35.1°F1.7°C 84% 3.5 mph W5.6 kmh W 5.8 mph9.3 kmh 30.34 in1027.4 mb - 0.00 in0.0 mm 0.00 in0.0 mm
10:45 AM 39.3°F4.1°C 34.9°F1.6°C 84% 4.6 mph WNW7.4 kmh WNW 4.6 mph7.4 kmh 30.35 in1027.8 mb - 0.00 in0.0 mm 0.00 in0.0 mm
10:40 AM 39.2°F4.0°C 35.0°F1.7°C 85% 3.5 mph WNW5.6 kmh WNW 9.2 mph14.8 kmh 30.35 in1027.8 mb - 0.00 in0.0 mm 0.00 in0.0 mm
10:35 AM 38.9°F3.8°C 35.4°F1.9°C 87% Calm Calm 3.5 mph5.6 kmh 30.35 in1027.8 mb - 0.00 in0.0 mm 0.00 in0.0 mm
10:30 AM 39.0°F3.9°C 35.4°F1.9°C 87% 4.6 mph W7.4 kmh W 9.2 mph14.8 kmh 30.35 in1027.8 mb - 0.00 in0.0 mm 0.00 in0.0 mm
10:25 AM 38.9°F3.8°C 35.4°F1.9°C 87% 4.6 mph W7.4 kmh W 6.9 mph11.1 kmh 30.34 in1027.4 mb - 0.00 in0.0 mm 0.00 in0.0 mm
10:20 AM 38.8°F3.8°C 35.3°F1.8°C 87% 2.3 mph W3.7 kmh W 4.6 mph7.4 kmh 30.34 in1027.4 mb - 0.00 in0.0 mm 0.00 in0.0 mm
10:15 AM 39.1°F3.9°C 35.3°F1.8°C 86% 4.6 mph W7.4 kmh W 8.1 mph13.0 kmh 30.34 in1027.4 mb - 0.00 in0.0 mm 0.00 in0.0 mm
10:10 AM 39.5°F4.2°C 35.7°F2.1°C 86% 4.6 mph WSW7.4 kmh WSW 5.8 mph9.3 kmh 30.34 in1027.4 mb - 0.00 in0.0 mm 0.00 in0.0 mm
10:00 AM 40.0°F4.4°C 35.9°F2.2°C 85% 4.6 mph W7.4 kmh W 5.8 mph9.3 kmh 30.34 in1027.4 mb - 0.00 in0.0 mm 0.00 in0.0 mm
09:55 AM 40.0°F4.4°C 35.8°F2.1°C 85% 6.9 mph WNW11.1 kmh WNW 11.5 mph18.5 kmh 30.33 in1027.1 mb - 0.00 in0.0 mm 0.00 in0.0 mm
09:50 AM 40.1°F4.5°C 35.9°F2.2°C 85% 4.6 mph W7.4 kmh W 8.1 mph13.0 kmh 30.33 in1027.1 mb - 0.00 in0.0 mm 0.00 in0.0 mm
09:45 AM 40.2°F4.6°C 36.1°F2.3°C 85% 3.5 mph W5.6 kmh W 8.1 mph13.0 kmh 30.33 in1027.1 mb - 0.00 in0.0 mm 0.00 in0.0 mm
09:40 AM 40.1°F4.5°C 36.3°F2.4°C 86% 3.5 mph W5.6 kmh W 9.2 mph14.8 kmh 30.33 in1027.1 mb - 0.00 in0.0 mm 0.00 in0.0 mm
09:35 AM 39.9°F4.4°C 36.1°F2.3°C 86% 3.5 mph W5.6 kmh W 9.2 mph14.8 kmh 30.33 in1027.1 mb - 0.00 in0.0 mm 0.00 in0.0 mm
09:30 AM 39.7°F4.3°C 36.1°F2.3°C 87% 5.8 mph WNW9.3 kmh WNW 11.5 mph18.5 kmh 30.33 in1027.1 mb - 0.00 in0.0 mm 0.00 in0.0 mm
09:25 AM 39.7°F4.3°C 36.1°F2.3°C 87% 3.5 mph W5.6 kmh W 4.6 mph7.4 kmh 30.33 in1027.1 mb - 0.00 in0.0 mm 0.00 in0.0 mm
09:20 AM 39.6°F4.2°C 36.3°F2.4°C 88% 2.3 mph WNW3.7 kmh WNW 6.9 mph11.1 kmh 30.33 in1027.1 mb - 0.00 in0.0 mm 0.00 in0.0 mm
09:15 AM 39.7°F4.3°C 36.4°F2.4°C 88% 4.6 mph WSW7.4 kmh WSW 8.1 mph13.0 kmh 30.32 in1026.8 mb - 0.00 in0.0 mm 0.00 in0.0 mm
09:10 AM 39.7°F4.3°C 36.5°F2.5°C 88% 3.5 mph W5.6 kmh W 5.8 mph9.3 kmh 30.32 in1026.8 mb - 0.00 in0.0 mm 0.00 in0.0 mm
09:00 AM 40.0°F4.4°C 36.4°F2.4°C 87% 4.6 mph WNW7.4 kmh WNW 5.8 mph9.3 kmh 30.32 in1026.8 mb - 0.00 in0.0 mm 0.00 in0.0 mm
08:55 AM 40.1°F4.5°C 36.5°F2.5°C 87% 4.6 mph WNW7.4 kmh WNW 11.5 mph18.5 kmh 30.32 in1026.8 mb - 0.00 in0.0 mm 0.00 in0.0 mm
08:50 AM 40.2°F4.6°C 36.6°F2.6°C 87% 4.6 mph W7.4 kmh W 9.2 mph14.8 kmh 30.32 in1026.8 mb - 0.00 in0.0 mm 0.00 in0.0 mm
08:45 AM 40.2°F4.6°C 36.6°F2.6°C 87% 2.3 mph WNW3.7 kmh WNW 6.9 mph11.1 kmh 30.32 in1026.8 mb - 0.00 in0.0 mm 0.00 in0.0 mm
08:40 AM 40.3°F4.6°C 36.7°F2.6°C 87% 3.5 mph W5.6 kmh W 11.5 mph18.5 kmh 30.31 in1026.4 mb - 0.00 in0.0 mm 0.00 in0.0 mm
08:35 AM 40.4°F4.7°C 36.5°F2.5°C 86% 3.5 mph WNW5.6 kmh WNW 8.1 mph13.0 kmh 30.31 in1026.4 mb - 0.00 in0.0 mm 0.00 in0.0 mm
08:30 AM 40.5°F4.7°C 36.6°F2.6°C 86% 4.6 mph WNW7.4 kmh WNW 8.1 mph13.0 kmh 30.31 in1026.4 mb - 0.00 in0.0 mm 0.00 in0.0 mm
08:25 AM 40.6°F4.8°C 36.5°F2.5°C 85% 5.8 mph WNW9.3 kmh WNW 8.1 mph13.0 kmh 30.31 in1026.4 mb - 0.00 in0.0 mm 0.00 in0.0 mm
08:20 AM 40.7°F4.8°C 36.2°F2.3°C 84% 3.5 mph W5.6 kmh W 8.1 mph13.0 kmh 30.30 in1026.1 mb - 0.00 in0.0 mm 0.00 in0.0 mm
08:15 AM 40.8°F4.9°C 36.0°F2.2°C 83% 4.6 mph W7.4 kmh W 9.2 mph14.8 kmh 30.30 in1026.1 mb - 0.00 in0.0 mm 0.00 in0.0 mm
08:10 AM 40.9°F4.9°C 36.2°F2.3°C 83% 5.8 mph WNW9.3 kmh WNW 11.5 mph18.5 kmh 30.30 in1026.1 mb - 0.00 in0.0 mm 0.00 in0.0 mm
08:00 AM 40.8°F4.9°C 36.0°F2.2°C 83% 5.8 mph WNW9.3 kmh WNW 10.4 mph16.7 kmh 30.30 in1026.1 mb - 0.00 in0.0 mm 0.00 in0.0 mm
07:55 AM 40.7°F4.8°C 35.9°F2.2°C 83% 3.5 mph WNW5.6 kmh WNW 8.1 mph13.0 kmh 30.30 in1026.1 mb - 0.00 in0.0 mm 0.00 in0.0 mm
07:50 AM 40.8°F4.9°C 36.0°F2.2°C 83% 6.9 mph NW11.1 kmh NW 10.4 mph16.7 kmh 30.29 in1025.7 mb - 0.00 in0.0 mm 0.00 in0.0 mm
07:45 AM 40.8°F4.9°C 36.0°F2.2°C 83% 3.5 mph WNW5.6 kmh WNW 5.8 mph9.3 kmh 30.29 in1025.7 mb - 0.00 in0.0 mm 0.00 in0.0 mm
07:40 AM 40.8°F4.9°C 36.3°F2.4°C 84% 3.5 mph WNW5.6 kmh WNW 6.9 mph11.1 kmh 30.29 in1025.7 mb - 0.00 in0.0 mm 0.00 in0.0 mm
07:35 AM 41.0°F5.0°C 36.2°F2.3°C 83% 6.9 mph WNW11.1 kmh WNW 12.7 mph20.4 kmh 30.29 in1025.7 mb - 0.00 in0.0 mm 0.00 in0.0 mm
07:30 AM 41.2°F5.1°C 36.4°F2.4°C 83% 6.9 mph W11.1 kmh W 12.7 mph20.4 kmh 30.29 in1025.7 mb - 0.00 in0.0 mm 0.00 in0.0 mm
07:25 AM 41.2°F5.1°C 36.4°F2.4°C 83% 2.3 mph W3.7 kmh W 4.6 mph7.4 kmh 30.28 in1025.4 mb - 0.00 in0.0 mm 0.00 in0.0 mm
07:20 AM 41.3°F5.2°C 36.8°F2.7°C 84% 3.5 mph W5.6 kmh W 4.6 mph7.4 kmh 30.28 in1025.4 mb - 0.00 in0.0 mm 0.00 in0.0 mm
07:15 AM 41.4°F5.2°C 37.0°F2.8°C 84% 2.3 mph W3.7 kmh W 5.8 mph9.3 kmh 30.29 in1025.7 mb - 0.00 in0.0 mm 0.00 in0.0 mm
07:10 AM 41.5°F5.3°C 37.1°F2.8°C 84% 4.6 mph W7.4 kmh W 11.5 mph18.5 kmh 30.28 in1025.4 mb - 0.00 in0.0 mm 0.00 in0.0 mm
07:00 AM 41.7°F5.4°C 37.3°F2.9°C 84% 3.5 mph W5.6 kmh W 9.2 mph14.8 kmh 30.28 in1025.4 mb - 0.00 in0.0 mm 0.00 in0.0 mm
06:55 AM 41.9°F5.5°C 37.4°F3.0°C 84% 3.5 mph WNW5.6 kmh WNW 4.6 mph7.4 kmh 30.28 in1025.4 mb - 0.00 in0.0 mm 0.00 in0.0 mm
06:50 AM 41.9°F5.5°C 37.4°F3.0°C 84% 1.2 mph W1.9 kmh W 4.6 mph7.4 kmh 30.28 in1025.4 mb - 0.00 in0.0 mm 0.00 in0.0 mm
06:45 AM 42.0°F5.6°C 37.5°F3.1°C 84% 2.3 mph W3.7 kmh W 3.5 mph5.6 kmh 30.28 in1025.4 mb - 0.00 in0.0 mm 0.00 in0.0 mm
06:40 AM 42.2°F5.7°C 37.4°F3.0°C 83% 2.3 mph W3.7 kmh W 4.6 mph7.4 kmh 30.27 in1025.1 mb - 0.00 in0.0 mm 0.00 in0.0 mm
06:35 AM 42.3°F5.7°C 37.5°F3.1°C 83% 4.6 mph W7.4 kmh W 8.1 mph13.0 kmh 30.27 in1025.1 mb - 0.00 in0.0 mm 0.00 in0.0 mm
06:30 AM 42.4°F5.8°C 37.6°F3.1°C 83% 1.2 mph W1.9 kmh W 5.8 mph9.3 kmh 30.27 in1025.1 mb - 0.00 in0.0 mm 0.00 in0.0 mm
06:25 AM 42.3°F5.7°C 37.5°F3.1°C 83% 2.3 mph W3.7 kmh W 3.5 mph5.6 kmh 30.27 in1025.1 mb - 0.00 in0.0 mm 0.00 in0.0 mm
06:20 AM 42.3°F5.7°C 37.5°F3.1°C 83% 1.2 mph W1.9 kmh W 5.8 mph9.3 kmh 30.27 in1025.1 mb - 0.00 in0.0 mm 0.00 in0.0 mm
06:15 AM 42.4°F5.8°C 37.3°F2.9°C 82% 4.6 mph W7.4 kmh W 8.1 mph13.0 kmh 30.27 in1025.1 mb - 0.00 in0.0 mm 0.00 in0.0 mm
06:10 AM 42.5°F5.8°C 37.4°F3.0°C 82% 4.6 mph W7.4 kmh W 8.1 mph13.0 kmh 30.26 in1024.7 mb - 0.00 in0.0 mm 0.00 in0.0 mm
06:00 AM 42.6°F5.9°C 37.2°F2.9°C 81% Calm Calm 3.5 mph5.6 kmh 30.26 in1024.7 mb - 0.00 in0.0 mm 0.00 in0.0 mm
05:55 AM 42.9°F6.1°C 37.5°F3.1°C 81% 4.6 mph W7.4 kmh W 9.2 mph14.8 kmh 30.26 in1024.7 mb - 0.00 in0.0 mm 0.00 in0.0 mm
05:50 AM 42.9°F6.1°C 37.5°F3.1°C 81% 2.3 mph W3.7 kmh W 5.8 mph9.3 kmh 30.25 in1024.4 mb - 0.00 in0.0 mm 0.00 in0.0 mm
05:45 AM 43.1°F6.2°C 37.3°F2.9°C 80% 2.3 mph WSW3.7 kmh WSW 4.6 mph7.4 kmh 30.25 in1024.4 mb - 0.00 in0.0 mm 0.00 in0.0 mm
05:40 AM 43.2°F6.2°C 37.5°F3.1°C 80% 4.6 mph W7.4 kmh W 5.8 mph9.3 kmh 30.25 in1024.4 mb - 0.00 in0.0 mm 0.00 in0.0 mm
05:35 AM 43.3°F6.3°C 37.6°F3.1°C 80% 3.5 mph W5.6 kmh W 4.6 mph7.4 kmh 30.25 in1024.4 mb - 0.00 in0.0 mm 0.00 in0.0 mm
05:30 AM 43.4°F6.3°C 37.3°F2.9°C 79% 3.5 mph W5.6 kmh W 8.1 mph13.0 kmh 30.25 in1024.4 mb - 0.00 in0.0 mm 0.00 in0.0 mm
05:25 AM 43.7°F6.5°C 37.6°F3.1°C 79% 3.5 mph W5.6 kmh W 5.8 mph9.3 kmh 30.25 in1024.4 mb - 0.00 in0.0 mm 0.00 in0.0 mm
05:20 AM 44.0°F6.7°C 37.6°F3.1°C 78% 3.5 mph WNW5.6 kmh WNW 6.9 mph11.1 kmh 30.24 in1024.0 mb - 0.00 in0.0 mm 0.00 in0.0 mm
05:15 AM 44.2°F6.8°C 38.1°F3.4°C 79% 4.6 mph WSW7.4 kmh WSW 6.9 mph11.1 kmh 30.24 in1024.0 mb - 0.00 in0.0 mm 0.00 in0.0 mm
05:10 AM 44.3°F6.8°C 38.2°F3.4°C 79% 1.2 mph W1.9 kmh W 2.3 mph3.7 kmh 30.24 in1024.0 mb - 0.00 in0.0 mm 0.00 in0.0 mm
05:00 AM 44.3°F6.8°C 37.9°F3.3°C 78% 2.3 mph W3.7 kmh W 5.8 mph9.3 kmh 30.23 in1023.7 mb - 0.00 in0.0 mm 0.00 in0.0 mm
04:55 AM 44.5°F6.9°C 38.1°F3.4°C 78% 3.5 mph WNW5.6 kmh WNW 9.2 mph14.8 kmh 30.22 in1023.4 mb - 0.00 in0.0 mm 0.00 in0.0 mm
04:50 AM 44.5°F6.9°C 38.1°F3.4°C 78% 4.6 mph WNW7.4 kmh WNW 9.2 mph14.8 kmh 30.22 in1023.4 mb - 0.00 in0.0 mm 0.00 in0.0 mm
04:45 AM 44.7°F7.1°C 38.3°F3.5°C 78% 3.5 mph W5.6 kmh W 8.1 mph13.0 kmh 30.22 in1023.4 mb - 0.00 in0.0 mm 0.00 in0.0 mm
04:40 AM 44.8°F7.1°C 38.4°F3.6°C 78% 3.5 mph W5.6 kmh W 9.2 mph14.8 kmh 30.22 in1023.4 mb - 0.00 in0.0 mm 0.00 in0.0 mm
04:35 AM 45.0°F7.2°C 38.6°F3.7°C 78% 2.3 mph W3.7 kmh W 9.2 mph14.8 kmh 30.21 in1023.0 mb - 0.00 in0.0 mm 0.00 in0.0 mm
04:30 AM 45.2°F7.3°C 38.7°F3.7°C 78% 2.3 mph WNW3.7 kmh WNW 1.2 mph1.9 kmh 30.21 in1023.0 mb - 0.00 in0.0 mm 0.00 in0.0 mm
04:25 AM 45.3°F7.4°C 38.8°F3.8°C 78% 4.6 mph W7.4 kmh W 5.8 mph9.3 kmh 30.21 in1023.0 mb - 0.00 in0.0 mm 0.00 in0.0 mm
04:20 AM 45.3°F7.4°C 38.9°F3.8°C 78% 3.5 mph W5.6 kmh W 5.8 mph9.3 kmh 30.21 in1023.0 mb - 0.00 in0.0 mm 0.00 in0.0 mm
04:15 AM 45.5°F7.5°C 38.7°F3.7°C 77% 3.5 mph W5.6 kmh W 4.6 mph7.4 kmh 30.21 in1023.0 mb - 0.00 in0.0 mm 0.00 in0.0 mm
04:10 AM 45.6°F7.6°C 38.8°F3.8°C 77% 4.6 mph WSW7.4 kmh WSW 8.1 mph13.0 kmh 30.21 in1023.0 mb - 0.00 in0.0 mm 0.00 in0.0 mm
04:00 AM 45.8°F7.7°C 39.0°F3.9°C 77% 3.5 mph WSW5.6 kmh WSW 4.6 mph7.4 kmh 30.21 in1023.0 mb - 0.00 in0.0 mm 0.00 in0.0 mm
03:55 AM 46.0°F7.8°C 39.2°F4.0°C 77% 3.5 mph W5.6 kmh W 5.8 mph9.3 kmh 30.20 in1022.7 mb - 0.00 in0.0 mm 0.00 in0.0 mm
03:50 AM 46.2°F7.9°C 39.4°F4.1°C 77% 3.5 mph W5.6 kmh W 8.1 mph13.0 kmh 30.20 in1022.7 mb - 0.00 in0.0 mm 0.00 in0.0 mm
03:45 AM 46.3°F7.9°C 39.5°F4.2°C 77% Calm Calm 5.8 mph9.3 kmh 30.20 in1022.7 mb - 0.00 in0.0 mm 0.00 in0.0 mm
03:40 AM 46.4°F8.0°C 39.6°F4.2°C 77% 2.3 mph WSW3.7 kmh WSW 5.8 mph9.3 kmh 30.20 in1022.7 mb - 0.00 in0.0 mm 0.00 in0.0 mm
03:35 AM 46.4°F8.0°C 39.6°F4.2°C 77% Calm Calm 1.2 mph1.9 kmh 30.20 in1022.7 mb - 0.00 in0.0 mm 0.00 in0.0 mm
03:30 AM 46.4°F8.0°C 39.6°F4.2°C 77% 2.3 mph WSW3.7 kmh WSW 5.8 mph9.3 kmh 30.19 in1022.4 mb - 0.00 in0.0 mm 0.00 in0.0 mm
03:25 AM 46.6°F8.1°C 39.8°F4.3°C 77% Calm Calm 2.3 mph3.7 kmh 30.18 in1022.0 mb - 0.00 in0.0 mm 0.00 in0.0 mm
03:20 AM 46.7°F8.2°C 39.9°F4.4°C 77% 3.5 mph WNW5.6 kmh WNW 5.8 mph9.3 kmh 30.18 in1022.0 mb - 0.00 in0.0 mm 0.00 in0.0 mm
03:15 AM 46.9°F8.3°C 39.7°F4.3°C 76% 2.3 mph W3.7 kmh W 4.6 mph7.4 kmh 30.18 in1022.0 mb - 0.00 in0.0 mm 0.00 in0.0 mm
03:10 AM 47.1°F8.4°C 39.9°F4.4°C 76% Calm Calm 5.8 mph9.3 kmh 30.18 in1022.0 mb - 0.00 in0.0 mm 0.00 in0.0 mm
03:00 AM 47.4°F8.6°C 40.2°F4.6°C 76% 1.2 mph W1.9 kmh W 3.5 mph5.6 kmh 30.18 in1022.0 mb - 0.00 in0.0 mm 0.00 in0.0 mm
02:55 AM 47.4°F8.6°C 40.2°F4.6°C 76% 4.6 mph W7.4 kmh W 11.5 mph18.5 kmh 30.17 in1021.7 mb - 0.00 in0.0 mm 0.00 in0.0 mm
02:50 AM 47.6°F8.7°C 40.4°F4.7°C 76% 2.3 mph W3.7 kmh W 4.6 mph7.4 kmh 30.17 in1021.7 mb - 0.00 in0.0 mm 0.00 in0.0 mm
02:45 AM 47.9°F8.8°C 40.7°F4.8°C 76% 4.6 mph W7.4 kmh W 11.5 mph18.5 kmh 30.17 in1021.7 mb - 0.00 in0.0 mm 0.00 in0.0 mm
02:40 AM 47.9°F8.8°C 40.7°F4.8°C 76% 3.5 mph WSW5.6 kmh WSW 3.5 mph5.6 kmh 30.17 in1021.7 mb - 0.00 in0.0 mm 0.00 in0.0 mm
02:35 AM 48.0°F8.9°C 40.8°F4.9°C 76% 3.5 mph WNW5.6 kmh WNW 9.2 mph14.8 kmh 30.16 in1021.3 mb - 0.00 in0.0 mm 0.00 in0.0 mm
02:30 AM 48.1°F8.9°C 40.9°F4.9°C 76% 4.6 mph W7.4 kmh W 9.2 mph14.8 kmh 30.16 in1021.3 mb - 0.00 in0.0 mm 0.00 in0.0 mm
02:25 AM 48.3°F9.1°C 41.1°F5.1°C 76% 4.6 mph W7.4 kmh W 8.1 mph13.0 kmh 30.16 in1021.3 mb - 0.00 in0.0 mm 0.00 in0.0 mm
02:20 AM 48.7°F9.3°C 41.5°F5.3°C 76% 2.3 mph NW3.7 kmh NW 9.2 mph14.8 kmh 30.15 in1021.0 mb - 0.00 in0.0 mm 0.00 in0.0 mm
02:15 AM 49.0°F9.4°C 41.4°F5.2°C 75% 3.5 mph W5.6 kmh W 11.5 mph18.5 kmh 30.15 in1021.0 mb - 0.00 in0.0 mm 0.00 in0.0 mm
02:10 AM 49.4°F9.7°C 41.8°F5.4°C 75% 2.3 mph WSW3.7 kmh WSW 5.8 mph9.3 kmh 30.15 in1021.0 mb - 0.00 in0.0 mm 0.00 in0.0 mm
02:00 AM 49.8°F9.9°C 42.2°F5.7°C 75% 3.5 mph WSW5.6 kmh WSW 8.1 mph13.0 kmh 30.14 in1020.7 mb - 0.00 in0.0 mm 0.00 in0.0 mm
01:55 AM 49.9°F9.9°C 42.6°F5.9°C 76% 2.3 mph WSW3.7 kmh WSW 6.9 mph11.1 kmh 30.14 in1020.7 mb - 0.00 in0.0 mm 0.00 in0.0 mm
01:50 AM 50.1°F10.1°C 42.5°F5.8°C 75% 4.6 mph WSW7.4 kmh WSW 9.2 mph14.8 kmh 30.14 in1020.7 mb - 0.00 in0.0 mm 0.00 in0.0 mm
01:45 AM 50.4°F10.2°C 42.8°F6.0°C 75% 2.3 mph W3.7 kmh W 4.6 mph7.4 kmh 30.14 in1020.7 mb - 0.00 in0.0 mm 0.00 in0.0 mm
01:40 AM 50.8°F10.4°C 43.1°F6.2°C 75% 2.3 mph WSW3.7 kmh WSW 3.5 mph5.6 kmh 30.14 in1020.7 mb - 0.00 in0.0 mm 0.00 in0.0 mm
01:35 AM 51.0°F10.6°C 43.4°F6.3°C 75% 2.3 mph WSW3.7 kmh WSW 4.6 mph7.4 kmh 30.14 in1020.7 mb - 0.00 in0.0 mm 0.00 in0.0 mm
01:30 AM 51.2°F10.7°C 43.6°F6.4°C 75% 3.5 mph WSW5.6 kmh WSW 6.9 mph11.1 kmh 30.13 in1020.3 mb - 0.00 in0.0 mm 0.00 in0.0 mm
01:25 AM 52.0°F11.1°C 44.0°F6.7°C 74% 3.5 mph W5.6 kmh W 8.1 mph13.0 kmh 30.13 in1020.3 mb - 0.00 in0.0 mm 0.00 in0.0 mm
01:20 AM 52.6°F11.4°C 44.9°F7.2°C 75% 4.6 mph WSW7.4 kmh WSW 8.1 mph13.0 kmh 30.13 in1020.3 mb - 0.00 in0.0 mm 0.00 in0.0 mm
01:15 AM 53.2°F11.8°C 45.1°F7.3°C 74% 3.5 mph WSW5.6 kmh WSW 8.1 mph13.0 kmh 30.13 in1020.3 mb - 0.00 in0.0 mm 0.00 in0.0 mm
01:10 AM 54.2°F12.3°C 45.7°F7.6°C 73% 3.5 mph W5.6 kmh W 8.1 mph13.0 kmh 30.13 in1020.3 mb - 0.00 in0.0 mm 0.00 in0.0 mm
01:00 AM 58.1°F14.5°C 50.9°F10.5°C 77% 4.6 mph WSW7.4 kmh WSW 9.2 mph14.8 kmh 30.12 in1020.0 mb - 0.00 in0.0 mm 0.00 in0.0 mm
12:55 AM 59.4°F15.2°C 53.3°F11.8°C 80% 5.8 mph WSW9.3 kmh WSW 8.1 mph13.0 kmh 30.11 in1019.6 mb - 0.00 in0.0 mm 0.00 in0.0 mm
12:50 AM 59.6°F15.3°C 53.4°F11.9°C 80% 1.2 mph S1.9 kmh S 3.5 mph5.6 kmh 30.11 in1019.6 mb - 0.00 in0.0 mm 0.00 in0.0 mm
12:45 AM 59.6°F15.3°C 53.4°F11.9°C 80% 1.2 mph SW1.9 kmh SW 2.3 mph3.7 kmh 30.11 in1019.6 mb - 0.00 in0.0 mm 0.00 in0.0 mm
12:40 AM 59.6°F15.3°C 53.4°F11.9°C 80% Calm Calm -- 30.11 in1019.6 mb - 0.00 in0.0 mm 0.00 in0.0 mm
12:35 AM 59.7°F15.4°C 53.2°F11.8°C 79% Calm Calm -- 30.11 in1019.6 mb - 0.00 in0.0 mm 0.00 in0.0 mm
12:30 AM 59.9°F15.5°C 53.4°F11.9°C 79% Calm Calm -- 30.11 in1019.6 mb - 0.00 in0.0 mm 0.00 in0.0 mm
12:25 AM 60.1°F15.6°C 53.2°F11.8°C 78% Calm Calm -- 30.11 in1019.6 mb - 0.00 in0.0 mm 0.00 in0.0 mm
12:20 AM 60.1°F15.6°C 52.9°F11.6°C 77% Calm Calm -- 30.11 in1019.6 mb - 0.00 in0.0 mm 0.00 in0.0 mm
12:15 AM 60.2°F15.7°C 53.0°F11.7°C 77% 1.2 mph S1.9 kmh S 5.8 mph9.3 kmh 30.11 in1019.6 mb - 0.00 in0.0 mm 0.00 in0.0 mm
12:10 AM 60.3°F15.7°C 52.7°F11.5°C 76% 3.5 mph SW5.6 kmh SW 5.8 mph9.3 kmh 30.11 in1019.6 mb - 0.00 in0.0 mm 0.00 in0.0 mm
12:00 AM 60.4°F15.8°C 52.8°F11.6°C 76% 2.3 mph SE3.7 kmh SE 8.1 mph13.0 kmh 30.10 in1019.3 mb - 0.00 in0.0 mm 0.00 in0.0 mm